Sylvan Lake, South Dakota
Current Conditions -  °F | °C
As of 11:53 PM on Sunday 23 Nov 2014 (Local Time) from KCUT Reporting Station
Clear Clear  
Wind Chill: 15°   Ceiling: Unl
Heat Index: 26°   Visibility: 10mi
Dew Point: 11°   Wind: 13mph
Humidity: 53%   Direction: 320°NW
Pressure: 29.67"   Gusts: 29mph
Location:  43.6653°N, 103.766°W
Report Text: KCUT 240653Z AUTO 32011G25KT 10SM CLR M03/M12 A2967 RMK AO2 SLP075 T10331117 400111033
Loading
Personal Weather Stations






























Interactive Weather Map New forecast layout! Learn more

10-Day Weather Forecast

Advertisements
Track Severe Weather on mobile